createdAt,value
2022-10-02T00:00:21.403Z,2.9
2022-10-02T00:06:10.669Z,3
2022-10-02T00:12:00.937Z,3.5
2022-10-02T00:17:51.589Z,3.1
2022-10-02T00:23:41.451Z,2.8
2022-10-02T00:29:31.872Z,3.2
2022-10-02T00:35:22.901Z,3.5
2022-10-02T00:41:18.380Z,3.2
2022-10-02T00:47:09.300Z,2.9
2022-10-02T00:52:58.820Z,3.5
2022-10-02T00:58:48.851Z,3
2022-10-02T01:04:39.137Z,3.3
2022-10-02T01:10:30.517Z,3.7
2022-10-02T01:16:20.311Z,3.1
2022-10-02T01:22:09.955Z,3.8
2022-10-02T01:28:00.590Z,3.2
2022-10-02T01:33:51.221Z,3.4
2022-10-02T01:39:41.745Z,3.5
2022-10-02T01:45:31.722Z,3.4
2022-10-02T01:51:27.759Z,3.3
2022-10-02T01:57:17.487Z,3
2022-10-02T02:03:08.123Z,3.5
2022-10-02T02:09:06.818Z,3
2022-10-02T02:14:55.249Z,4
2022-10-02T02:20:45.248Z,3.7
2022-10-02T02:26:34.993Z,3.9
2022-10-02T02:32:25.099Z,3.5
2022-10-02T02:38:15.652Z,3.6
2022-10-02T02:44:04.273Z,3.6
2022-10-02T02:49:53.370Z,4
2022-10-02T02:55:50.359Z,3.5
2022-10-02T03:01:39.914Z,3.8
2022-10-02T03:07:29.957Z,3.4
2022-10-02T03:13:19.805Z,3.7
2022-10-02T03:19:09.825Z,3.5
2022-10-02T03:25:00.116Z,4.6
2022-10-02T03:30:49.198Z,4.1
2022-10-02T03:36:40.089Z,3.8
2022-10-02T03:42:30.211Z,3.9
2022-10-02T03:48:20.661Z,3.5
2022-10-02T03:54:09.098Z,3.7
2022-10-02T03:59:58.786Z,4.8
2022-10-02T04:05:47.928Z,4.2
2022-10-02T04:11:39.346Z,4
2022-10-02T04:17:29.105Z,4.5
2022-10-02T04:23:21.532Z,4.3
2022-10-02T04:29:12.646Z,4.6
2022-10-02T04:35:04.816Z,4.5
2022-10-02T08:50:56.574Z,3.7
2022-10-02T09:04:25.556Z,1.6
2022-10-02T09:24:39.194Z,1.6
2022-10-02T09:31:04.892Z,1.1
2022-10-02T10:43:19.609Z,1.7
2022-10-02T10:49:07.856Z,1
2022-10-02T10:54:58.295Z,1.2
2022-10-02T11:00:49.438Z,12.6
2022-10-02T11:06:48.069Z,1.3
2022-10-02T11:12:37.963Z,1.3
2022-10-02T11:18:29.122Z,1.5
2022-10-02T11:24:21.573Z,1.3
2022-10-02T11:30:11.746Z,1.4
2022-10-02T11:36:01.984Z,1.4
2022-10-02T11:41:52.759Z,1.4
2022-10-02T11:47:43.864Z,1.6
2022-10-02T11:53:34.221Z,1.6
2022-10-02T11:59:24.547Z,1.6
2022-10-02T12:05:13.584Z,1.7
2022-10-02T12:11:03.274Z,1.7
2022-10-02T12:16:54.070Z,1.9
2022-10-02T12:22:43.732Z,1.7
2022-10-02T12:28:33.997Z,1.9
2022-10-02T12:34:23.900Z,1.7
2022-10-02T12:40:13.829Z,1.9
2022-10-02T12:46:04.475Z,2.5
2022-10-02T12:51:55.676Z,5.6
2022-10-02T12:57:47.010Z,2.3
2022-10-02T13:03:38.559Z,2.7
2022-10-02T13:09:40.337Z,2.9
2022-10-02T13:15:30.949Z,2.8
2022-10-02T13:21:22.874Z,2.5
2022-10-02T13:27:13.775Z,2.7
2022-10-02T13:33:04.355Z,2.5
2022-10-02T13:38:56.008Z,2.8
2022-10-02T13:44:46.374Z,2.8
2022-10-02T13:50:39.050Z,3.1
2022-10-02T13:56:29.798Z,2.7
2022-10-02T14:02:24.302Z,3.1
2022-10-02T14:08:14.357Z,3.1
2022-10-02T14:14:10.132Z,2.9
2022-10-02T14:20:00.520Z,2.9
2022-10-02T14:25:51.137Z,2.6
2022-10-02T14:31:42.636Z,2.4
2022-10-02T14:37:34.342Z,3.4
2022-10-02T14:43:25.521Z,2.6
2022-10-02T14:49:16.305Z,2.8
2022-10-02T14:55:07.569Z,2.7
2022-10-02T15:00:58.251Z,4.7
2022-10-02T15:06:49.014Z,3.1
2022-10-02T15:12:39.477Z,2.7
2022-10-02T15:18:30.187Z,3.1
2022-10-02T15:24:21.258Z,2.9
2022-10-02T15:30:12.016Z,3.1
2022-10-02T15:36:03.111Z,3
2022-10-02T15:41:54.592Z,3.5
2022-10-02T15:47:45.340Z,3.7
2022-10-02T15:53:37.837Z,5.5
2022-10-02T15:59:28.314Z,3.2
2022-10-02T16:05:19.548Z,3.6
2022-10-02T16:11:11.525Z,3.4
2022-10-02T16:17:03.709Z,3.4
2022-10-02T16:22:54.815Z,3.2
2022-10-02T16:28:46.203Z,3.8
2022-10-02T16:34:38.101Z,3.5
2022-10-02T16:40:36.002Z,3.5
2022-10-02T16:46:27.806Z,4.3
2022-10-02T16:52:18.120Z,3.1
2022-10-02T16:58:08.671Z,3.4
2022-10-02T17:03:59.352Z,4.1
2022-10-02T17:09:50.337Z,4
2022-10-02T17:15:40.213Z,4.7
2022-10-02T17:21:31.006Z,4.1
2022-10-02T17:27:22.431Z,4.3
2022-10-02T17:33:14.077Z,4.4
2022-10-02T17:39:04.597Z,4.4
2022-10-02T17:44:55.133Z,4.8
2022-10-02T17:50:46.091Z,5.4
2022-10-02T17:56:37.505Z,5.3
2022-10-02T18:02:28.723Z,5.4
2022-10-02T18:08:20.767Z,5.4
2022-10-02T18:14:10.962Z,5.4
2022-10-02T18:20:02.291Z,5.5
2022-10-02T18:25:52.664Z,5.5
2022-10-02T18:32:02.775Z,5.7
2022-10-02T18:37:52.696Z,6
2022-10-02T18:43:43.682Z,6.7
2022-10-02T18:49:38.125Z,6.6
2022-10-02T18:55:28.148Z,6.7
2022-10-02T19:01:19.774Z,7.4
2022-10-02T19:07:11.228Z,7.1
2022-10-02T19:13:01.401Z,7.2
2022-10-02T19:18:51.999Z,7.9
2022-10-02T19:24:41.277Z,7.9
2022-10-02T19:30:33.050Z,8
2022-10-02T19:36:23.308Z,8.3
2022-10-02T19:42:14.971Z,8.4
2022-10-02T19:48:06.858Z,9.5
2022-10-02T19:53:57.874Z,8.9
2022-10-02T19:59:50.154Z,16.4
2022-10-02T20:05:40.592Z,11.2
2022-10-02T20:11:32.612Z,10
2022-10-02T20:17:25.147Z,12.3
2022-10-02T20:23:17.483Z,10.7
2022-10-02T20:29:08.777Z,10
2022-10-02T20:35:00.884Z,11.1
2022-10-02T20:40:52.406Z,10.7
2022-10-02T20:46:49.566Z,11.1
2022-10-02T20:52:50.123Z,10.3
2022-10-02T20:58:45.108Z,10.8
2022-10-02T21:04:37.761Z,12
2022-10-02T21:10:29.495Z,10.7
2022-10-02T21:16:29.001Z,11.5
2022-10-02T21:22:41.900Z,10.7
2022-10-02T21:28:43.945Z,11
2022-10-02T21:34:35.677Z,10.1
2022-10-02T21:40:54.337Z,10.4
2022-10-02T21:46:47.533Z,10.5
2022-10-02T21:52:56.686Z,11
2022-10-02T21:58:51.834Z,11.1
2022-10-02T22:04:43.843Z,9.9
2022-10-02T22:10:34.999Z,11.2
2022-10-02T22:16:28.893Z,18
2022-10-02T22:22:24.256Z,11.8
2022-10-02T22:28:15.969Z,11.4
2022-10-02T22:34:12.652Z,11.1
2022-10-02T22:40:03.450Z,10.5
2022-10-02T22:45:58.371Z,9.9
2022-10-02T22:51:50.132Z,9.6
2022-10-02T22:57:41.451Z,9.3
2022-10-02T23:03:33.061Z,9.3
2022-10-02T23:09:27.766Z,8.9
2022-10-02T23:15:18.953Z,8.7
2022-10-02T23:21:15.417Z,7.8
2022-10-02T23:27:08.567Z,7.1
2022-10-02T23:32:58.681Z,9
2022-10-02T23:38:47.644Z,8.7
2022-10-02T23:44:40.041Z,8.9
2022-10-02T23:50:30.629Z,8.5
2022-10-02T23:56:20.547Z,9.1
